createdAt,value
2022-10-26T00:01:45.349Z,11.32
2022-10-26T00:04:12.887Z,15.25
2022-10-26T00:06:40.583Z,11.85
2022-10-26T00:09:08.062Z,10.82
2022-10-26T00:11:35.469Z,11.18
2022-10-26T00:14:03.866Z,10.48
2022-10-26T00:16:31.595Z,12.73
2022-10-26T00:18:58.951Z,11.82
2022-10-26T00:21:26.311Z,12.40
2022-10-26T00:23:53.794Z,13.38
2022-10-26T00:26:21.398Z,12.93
2022-10-26T00:28:49.118Z,11.00
2022-10-26T00:31:17.817Z,10.88
2022-10-26T00:33:45.648Z,8.75
2022-10-26T00:36:16.983Z,9.10
2022-10-26T00:38:49.623Z,14.93
2022-10-26T00:41:19.246Z,9.68
2022-10-26T00:43:46.721Z,14.52
2022-10-26T00:46:35.207Z,13.95
2022-10-26T00:49:05.788Z,10.93
2022-10-26T00:51:40.158Z,11.95
2022-10-26T00:54:12.411Z,9.07
2022-10-26T00:56:40.851Z,11.57
2022-10-26T00:59:10.167Z,15.38
2022-10-26T01:01:40.677Z,10.38
2022-10-26T01:04:08.174Z,9.70
2022-10-26T01:06:38.227Z,13.10
2022-10-26T01:09:06.193Z,14.05
2022-10-26T01:11:33.552Z,11.27
2022-10-26T01:14:02.231Z,10.13
2022-10-26T01:16:51.897Z,9.07
2022-10-26T01:19:58.154Z,8.27
2022-10-26T01:22:30.359Z,9.95
2022-10-26T01:25:17.349Z,12.35
2022-10-26T01:27:47.746Z,9.30
2022-10-26T01:30:31.193Z,9.73
2022-10-26T01:33:16.038Z,9.68
2022-10-26T01:36:14.611Z,14.75
2022-10-26T01:39:07.186Z,8.90
2022-10-26T01:41:50.020Z,8.55
2022-10-26T01:44:33.927Z,10.20
2022-10-26T01:47:02.146Z,12.85
2022-10-26T01:49:33.691Z,9.60
2022-10-26T01:52:01.187Z,10.20
2022-10-26T01:54:29.555Z,10.82
2022-10-26T01:57:01.423Z,13.32
2022-10-26T01:59:56.264Z,8.68
2022-10-26T02:02:33.222Z,11.43
2022-10-26T02:05:26.388Z,10.35
2022-10-26T02:08:09.464Z,9.13
2022-10-26T02:11:30.703Z,8.93
2022-10-26T02:14:06.986Z,11.57
2022-10-26T02:16:52.804Z,7.05
2022-10-26T02:19:32.525Z,10.98
2022-10-26T02:22:13.328Z,10.20
2022-10-26T02:24:41.636Z,7.38
2022-10-26T02:27:12.957Z,10.60
2022-10-26T02:29:41.518Z,12.77
2022-10-26T02:32:09.484Z,10.75
2022-10-26T02:34:38.883Z,12.98
2022-10-26T02:37:07.202Z,8.38
2022-10-26T02:39:35.409Z,9.90
2022-10-26T02:42:05.166Z,10.75
2022-10-26T02:44:38.152Z,14.48
2022-10-26T02:47:05.645Z,12.43
2022-10-26T02:49:33.364Z,7.88
2022-10-26T02:52:08.891Z,11.63
2022-10-26T02:54:59.298Z,11.10
2022-10-26T02:57:32.601Z,12.90
2022-10-26T03:00:00.821Z,10.15
2022-10-26T03:02:30.345Z,10.82
2022-10-26T03:05:08.063Z,11.45
2022-10-26T03:07:35.542Z,9.05
2022-10-26T03:10:03.033Z,14.45
2022-10-26T03:12:30.535Z,10.50
2022-10-26T03:14:57.998Z,10.50
2022-10-26T03:17:25.713Z,8.10
2022-10-26T03:19:53.192Z,9.75
2022-10-26T03:22:20.790Z,8.95
2022-10-26T03:24:48.513Z,12.75
2022-10-26T03:27:16.009Z,9.55
2022-10-26T03:29:43.362Z,10.20
2022-10-26T03:32:10.843Z,14.45
2022-10-26T03:34:38.445Z,11.93
2022-10-26T03:37:06.308Z,11.68
2022-10-26T03:39:33.894Z,11.48
2022-10-26T03:42:01.252Z,12.07
2022-10-26T03:44:28.724Z,8.93
2022-10-26T03:46:56.083Z,10.75
2022-10-26T03:49:23.806Z,11.65
2022-10-26T03:51:51.292Z,11.77
2022-10-26T03:54:18.775Z,14.63
2022-10-26T03:56:46.155Z,12.73
2022-10-26T03:59:13.628Z,14.75
2022-10-26T04:01:41.184Z,11.48
2022-10-26T04:04:08.753Z,10.65
2022-10-26T04:06:37.429Z,10.10
2022-10-26T04:09:05.106Z,12.55
2022-10-26T04:11:32.588Z,10.55
2022-10-26T04:14:00.788Z,12.93
2022-10-26T04:16:31.119Z,12.90
2022-10-26T04:19:01.163Z,12.15
2022-10-26T04:21:28.641Z,9.30
2022-10-26T04:23:56.231Z,13.98
2022-10-26T04:26:23.724Z,9.55
2022-10-26T04:28:51.200Z,11.05
2022-10-26T04:31:18.682Z,10.07
2022-10-26T04:38:06.688Z,13.32
2022-10-26T04:40:34.881Z,9.50
2022-10-26T04:43:02.619Z,8.85
2022-10-26T04:45:31.256Z,10.40
2022-10-26T04:48:06.570Z,10.15
2022-10-26T04:50:34.289Z,9.75
2022-10-26T04:53:01.770Z,12.77
2022-10-26T04:55:29.254Z,8.50
2022-10-26T04:58:00.046Z,9.02
2022-10-26T05:00:30.463Z,8.93
2022-10-26T05:03:13.184Z,9.15
2022-10-26T05:05:40.794Z,9.93
2022-10-26T05:08:15.943Z,12.02
2022-10-26T05:10:43.563Z,9.35
2022-10-26T05:13:11.148Z,8.25
2022-10-26T05:15:38.526Z,6.88
2022-10-26T05:18:06.353Z,9.70
2022-10-26T05:20:38.512Z,7.35
2022-10-26T05:23:08.149Z,9.70
2022-10-26T05:25:36.234Z,7.70
2022-10-26T05:28:05.909Z,11.65
2022-10-26T05:30:33.485Z,11.27
2022-10-26T05:33:03.299Z,9.75
2022-10-26T05:35:31.680Z,9.82
2022-10-26T05:37:59.526Z,11.18
2022-10-26T05:40:27.009Z,8.38
2022-10-26T05:43:00.130Z,11.18
2022-10-26T05:45:27.979Z,12.15
2022-10-26T05:47:58.589Z,9.55
2022-10-26T05:50:29.299Z,10.05
2022-10-26T05:52:56.902Z,8.88
2022-10-26T05:55:24.856Z,8.13
2022-10-26T05:57:52.982Z,9.25
2022-10-26T06:00:23.231Z,11.15
2022-10-26T06:03:08.175Z,9.95
2022-10-26T06:05:46.935Z,9.15
2022-10-26T06:08:14.784Z,11.43
2022-10-26T06:10:42.386Z,11.35
2022-10-26T06:13:10.105Z,10.18
2022-10-26T06:15:50.111Z,8.13
2022-10-26T06:18:40.111Z,10.10
2022-10-26T06:21:23.074Z,15.30
2022-10-26T06:24:13.390Z,11.60
2022-10-26T06:26:59.555Z,9.52
2022-10-26T06:32:05.358Z,17.38
2022-10-26T06:34:36.287Z,10.30
2022-10-26T06:37:04.370Z,10.10
2022-10-26T06:39:36.529Z,9.88
2022-10-26T06:42:04.242Z,13.48
2022-10-26T06:44:32.088Z,8.57
2022-10-26T06:47:21.214Z,13.20
2022-10-26T06:50:05.574Z,7.43
2022-10-26T06:52:43.253Z,11.98
2022-10-26T06:55:15.677Z,7.97
2022-10-26T06:57:44.250Z,10.38
2022-10-26T07:00:15.150Z,11.65
2022-10-26T07:02:43.020Z,10.32
2022-10-26T07:05:13.146Z,9.48
2022-10-26T07:07:43.146Z,10.57
2022-10-26T07:10:11.351Z,11.02
2022-10-26T07:12:39.079Z,12.25
2022-10-26T07:17:48.756Z,15.98
2022-10-26T07:20:18.103Z,14.38
2022-10-26T07:22:45.675Z,12.70
2022-10-26T07:25:13.259Z,15.68
2022-10-26T07:27:44.246Z,13.18
2022-10-26T07:30:12.203Z,10.88
2022-10-26T07:32:39.682Z,13.35
2022-10-26T07:35:07.411Z,10.45
2022-10-26T07:37:34.880Z,9.85
2022-10-26T07:40:05.744Z,9.57
2022-10-26T07:46:48.212Z,10.15
2022-10-26T07:49:19.149Z,14.10
2022-10-26T07:51:47.147Z,17.23
2022-10-26T07:54:14.632Z,11.38
2022-10-26T07:56:42.105Z,11.98
2022-10-26T07:59:12.459Z,15.43
2022-10-26T08:01:39.965Z,17.35
2022-10-26T08:04:07.424Z,14.68
2022-10-26T08:06:34.900Z,15.55
2022-10-26T08:09:05.925Z,17.20
2022-10-26T08:11:37.198Z,17.40
2022-10-26T08:14:05.281Z,13.20
2022-10-26T08:16:34.914Z,19.55
2022-10-26T08:19:02.388Z,15.95
2022-10-26T08:21:40.315Z,14.50
2022-10-26T08:24:08.389Z,12.50
2022-10-26T08:26:35.996Z,14.65
2022-10-26T08:29:04.097Z,15.43
2022-10-26T08:31:31.577Z,13.73
2022-10-26T08:33:59.758Z,14.82
2022-10-26T08:36:28.320Z,10.82
2022-10-26T08:38:55.864Z,13.20
2022-10-26T08:41:38.404Z,16.35
2022-10-26T08:44:16.324Z,11.43
2022-10-26T08:46:46.812Z,11.32
2022-10-26T08:49:26.935Z,13.50
2022-10-26T08:51:58.337Z,13.65
2022-10-26T08:54:34.694Z,11.77
2022-10-26T08:57:10.834Z,13.90
2022-10-26T08:59:46.501Z,12.55
2022-10-26T09:04:44.794Z,16.35
2022-10-26T09:07:15.533Z,13.48
2022-10-26T09:10:06.384Z,17.95
2022-10-26T09:12:54.490Z,18.00
2022-10-26T09:15:28.295Z,14.90
2022-10-26T09:18:03.508Z,13.25
2022-10-26T09:25:40.038Z,15.40
2022-10-26T09:28:23.482Z,15.98
2022-10-26T09:31:05.452Z,13.35
2022-10-26T09:33:48.589Z,17.25
2022-10-26T09:36:21.304Z,19.35
2022-10-26T09:39:01.426Z,12.43
2022-10-26T09:41:40.880Z,13.18
2022-10-26T09:44:43.723Z,18.75
2022-10-26T09:47:20.093Z,14.15
2022-10-26T09:49:50.934Z,13.60
2022-10-26T09:52:18.415Z,11.07
2022-10-26T09:54:51.790Z,9.75
2022-10-26T09:57:23.580Z,11.23
2022-10-26T09:59:52.887Z,10.32
2022-10-26T10:02:41.254Z,12.05
2022-10-26T10:08:29.270Z,11.93
2022-10-26T10:11:04.667Z,8.57
2022-10-26T10:13:41.854Z,11.10
2022-10-26T10:16:21.680Z,12.73
2022-10-26T10:18:58.620Z,13.55
2022-10-26T10:21:40.638Z,11.90
2022-10-26T10:24:34.275Z,12.10
2022-10-26T10:27:06.452Z,10.68
2022-10-26T10:29:42.850Z,18.63
2022-10-26T10:32:26.127Z,12.77
2022-10-26T10:37:30.817Z,10.90
2022-10-26T10:40:08.198Z,8.40
2022-10-26T10:42:39.099Z,15.82
2022-10-26T10:45:32.249Z,10.50
2022-10-26T10:48:38.619Z,5.90
2022-10-26T10:51:12.789Z,9.20
2022-10-26T10:53:49.422Z,6.63
2022-10-26T10:56:41.615Z,7.63
2022-10-26T10:59:31.061Z,5.20
2022-10-26T11:02:23.553Z,5.63
2022-10-26T11:05:22.019Z,5.72
2022-10-26T11:07:57.345Z,8.25
2022-10-26T11:10:28.452Z,7.78
2022-10-26T11:13:02.512Z,7.35
2022-10-26T11:15:32.877Z,4.63
2022-10-26T11:18:20.169Z,5.22
2022-10-26T11:24:00.954Z,5.15
2022-10-26T11:26:33.951Z,10.30
2022-10-26T11:29:41.678Z,4.43
2022-10-26T11:32:22.088Z,4.40
2022-10-26T11:35:15.480Z,4.95
2022-10-26T11:37:54.966Z,6.88
2022-10-26T11:44:53.775Z,4.03
2022-10-26T11:47:34.939Z,7.32
2022-10-26T11:50:17.222Z,4.05
2022-10-26T11:53:04.810Z,5.45
2022-10-26T11:55:32.329Z,9.50
2022-10-26T11:58:00.265Z,9.75
2022-10-26T12:00:28.215Z,5.55
2022-10-26T12:03:07.224Z,6.63
2022-10-26T12:05:40.699Z,5.80
2022-10-26T12:08:23.301Z,4.65
2022-10-26T12:10:58.732Z,3.55
2022-10-26T12:13:35.905Z,3.97
2022-10-26T12:16:15.514Z,5.38
2022-10-26T12:18:55.969Z,5.63
2022-10-26T12:21:30.872Z,7.20
2022-10-26T12:23:59.312Z,4.72
2022-10-26T12:26:26.675Z,4.68
2022-10-26T12:29:03.396Z,4.72
2022-10-26T12:31:38.353Z,4.25
2022-10-26T12:34:24.165Z,4.80
2022-10-26T12:36:57.650Z,5.78
2022-10-26T12:39:35.211Z,5.82
2022-10-26T12:42:05.898Z,3.75
2022-10-26T12:44:41.250Z,3.88
2022-10-26T12:47:09.895Z,3.63
2022-10-26T12:49:59.927Z,4.03
2022-10-26T12:52:34.401Z,3.50
2022-10-26T12:55:36.651Z,4.72
2022-10-26T12:58:41.937Z,5.70
2022-10-26T13:01:22.888Z,5.10
2022-10-26T13:04:06.891Z,4.10
2022-10-26T13:07:06.775Z,4.40
2022-10-26T13:09:34.429Z,3.25
2022-10-26T13:12:05.592Z,4.93
2022-10-26T13:14:54.069Z,6.88
2022-10-26T13:17:30.360Z,3.20
2022-10-26T13:20:00.665Z,5.05
2022-10-26T13:27:05.596Z,3.72
2022-10-26T13:29:34.171Z,2.17
2022-10-26T13:32:01.881Z,3.28
2022-10-26T13:34:31.163Z,3.15
2022-10-26T13:37:23.956Z,5.63
2022-10-26T13:39:55.993Z,4.72
2022-10-26T13:42:28.570Z,3.90
2022-10-26T13:45:11.959Z,5.85
2022-10-26T13:47:50.503Z,3.28
2022-10-26T13:50:22.775Z,5.00
2022-10-26T13:53:01.456Z,5.38
2022-10-26T13:56:02.607Z,7.07
2022-10-26T13:58:46.165Z,2.60
2022-10-26T14:01:21.618Z,5.82
2022-10-26T14:03:49.899Z,2.15
2022-10-26T14:06:25.302Z,4.25
2022-10-26T14:11:24.829Z,3.10
2022-10-26T14:13:52.905Z,1.98
2022-10-26T14:16:29.621Z,4.55
2022-10-26T14:18:57.111Z,3.38
2022-10-26T14:21:24.620Z,9.15
2022-10-26T14:24:03.712Z,5.10
2022-10-26T14:26:39.950Z,6.18
2022-10-26T14:29:22.332Z,5.93
2022-10-26T14:31:50.758Z,11.32
2022-10-26T14:34:19.438Z,8.95
2022-10-26T14:36:49.972Z,7.15
2022-10-26T14:39:37.796Z,8.05
2022-10-26T14:42:17.888Z,7.63
2022-10-26T14:44:45.360Z,5.07
2022-10-26T14:47:15.478Z,5.97
2022-10-26T14:49:45.490Z,6.32
2022-10-26T14:52:18.606Z,4.93
2022-10-26T14:54:57.966Z,3.15
2022-10-26T14:57:34.330Z,4.28
2022-10-26T15:00:04.698Z,2.33
2022-10-26T15:02:32.410Z,6.38
2022-10-26T15:05:03.020Z,7.30
2022-10-26T15:07:38.418Z,7.22
2022-10-26T15:10:06.321Z,4.82
2022-10-26T15:12:38.538Z,2.58
2022-10-26T15:15:15.072Z,2.97
2022-10-26T15:17:53.907Z,3.90
2022-10-26T15:20:23.313Z,5.20
2022-10-26T15:22:59.425Z,7.80
2022-10-26T15:25:32.062Z,4.28
2022-10-26T15:28:21.639Z,4.13
2022-10-26T15:31:18.700Z,3.95
2022-10-26T15:33:52.356Z,4.57
2022-10-26T15:36:27.395Z,3.92
2022-10-26T15:38:55.612Z,5.38
2022-10-26T15:41:26.948Z,5.40
2022-10-26T15:43:57.293Z,4.10
2022-10-26T15:46:35.596Z,7.78
2022-10-26T15:49:05.921Z,5.35
2022-10-26T15:51:34.001Z,7.47
2022-10-26T15:54:05.208Z,7.53
2022-10-26T15:56:32.803Z,6.20
2022-10-26T15:59:00.310Z,8.85
2022-10-26T16:01:29.445Z,4.63
2022-10-26T16:03:57.212Z,6.28
2022-10-26T16:06:31.621Z,5.20
2022-10-26T16:09:01.745Z,5.05
2022-10-26T16:11:29.576Z,6.70
2022-10-26T16:13:59.646Z,5.13
2022-10-26T16:16:36.428Z,6.47
2022-10-26T16:22:01.591Z,6.53
2022-10-26T16:24:30.318Z,4.90
2022-10-26T16:26:58.020Z,8.07
2022-10-26T16:29:25.765Z,8.10
2022-10-26T16:31:53.599Z,4.88
2022-10-26T16:34:21.202Z,8.13
2022-10-26T16:36:48.800Z,16.23
2022-10-26T16:39:16.518Z,10.45
2022-10-26T16:41:43.993Z,9.10
2022-10-26T16:44:15.413Z,11.63
2022-10-26T16:46:47.527Z,9.43
2022-10-26T16:49:15.171Z,9.15
2022-10-26T16:51:43.656Z,20.63
2022-10-26T16:54:11.124Z,60.85
2022-10-26T16:56:39.152Z,32.67
2022-10-26T16:59:09.086Z,19.20
2022-10-26T17:01:36.698Z,15.45
2022-10-26T17:04:04.529Z,9.82
2022-10-26T17:06:31.890Z,11.48
2022-10-26T17:08:59.743Z,9.85
2022-10-26T17:11:27.221Z,9.70
2022-10-26T17:13:55.055Z,9.38
2022-10-26T17:16:23.856Z,7.88
2022-10-26T17:18:53.014Z,6.93
2022-10-26T17:21:28.663Z,10.82
2022-10-26T17:23:56.164Z,8.10
2022-10-26T17:26:23.737Z,7.75
2022-10-26T17:28:52.669Z,9.10
2022-10-26T17:31:20.393Z,9.57
2022-10-26T17:33:53.518Z,9.02
2022-10-26T17:36:22.612Z,7.50
2022-10-26T17:38:51.366Z,8.07
2022-10-26T17:41:23.540Z,9.02
2022-10-26T17:43:51.474Z,9.60
2022-10-26T17:46:21.238Z,9.98
2022-10-26T17:48:49.002Z,8.65
2022-10-26T17:51:18.726Z,7.97
2022-10-26T17:53:50.534Z,12.10
2022-10-26T17:56:19.686Z,6.93
2022-10-26T17:58:52.233Z,13.60
2022-10-26T18:01:19.742Z,9.18
2022-10-26T18:03:47.538Z,16.33
2022-10-26T18:06:15.139Z,12.27
2022-10-26T18:08:42.618Z,10.07
2022-10-26T18:11:14.802Z,12.35
2022-10-26T18:13:45.036Z,8.85
2022-10-26T18:16:17.299Z,7.55
2022-10-26T18:18:52.109Z,11.27
2022-10-26T18:21:20.305Z,12.00
2022-10-26T18:23:53.017Z,9.48
2022-10-26T18:26:22.463Z,10.20
2022-10-26T18:28:53.318Z,11.70
2022-10-26T18:31:22.952Z,12.88
2022-10-26T18:34:04.480Z,6.88
2022-10-26T18:36:33.072Z,13.15
2022-10-26T18:39:00.760Z,11.88
2022-10-26T18:41:28.351Z,11.30
2022-10-26T18:43:59.044Z,14.10
2022-10-26T18:46:29.076Z,16.65
2022-10-26T18:48:57.997Z,12.02
2022-10-26T18:51:30.764Z,10.73
2022-10-26T18:53:59.086Z,13.93
2022-10-26T18:56:27.424Z,14.18
2022-10-26T18:58:59.691Z,11.88
2022-10-26T19:01:28.457Z,11.07
2022-10-26T19:03:58.133Z,13.90
2022-10-26T19:06:26.454Z,10.48
2022-10-26T19:08:54.546Z,8.63
2022-10-26T19:11:23.479Z,14.50
2022-10-26T19:13:52.981Z,15.45
2022-10-26T19:16:40.627Z,16.08
2022-10-26T19:19:10.743Z,9.93
2022-10-26T19:21:50.822Z,10.48
2022-10-26T19:24:22.982Z,12.43
2022-10-26T19:26:51.311Z,10.55
2022-10-26T19:29:19.269Z,13.80
2022-10-26T19:31:47.826Z,10.57
2022-10-26T19:34:18.912Z,10.95
2022-10-26T19:36:48.796Z,12.00
2022-10-26T19:39:17.359Z,12.90
2022-10-26T19:41:45.928Z,8.98
2022-10-26T19:44:14.810Z,11.40
2022-10-26T19:46:43.710Z,13.00
2022-10-26T19:49:13.039Z,7.93
2022-10-26T19:51:40.788Z,10.98
2022-10-26T19:54:08.869Z,12.52
2022-10-26T19:56:37.323Z,10.55
2022-10-26T19:59:05.727Z,11.48
2022-10-26T20:01:33.278Z,12.68
2022-10-26T20:04:02.946Z,13.85
2022-10-26T20:06:31.216Z,12.60
2022-10-26T20:08:59.908Z,11.10
2022-10-26T20:11:27.526Z,11.77
2022-10-26T20:13:56.592Z,10.18
2022-10-26T20:16:25.335Z,14.70
2022-10-26T20:18:56.240Z,9.57
2022-10-26T20:21:29.428Z,8.13
2022-10-26T20:23:57.012Z,13.57
2022-10-26T20:26:28.215Z,7.97
2022-10-26T20:28:56.379Z,15.60
2022-10-26T20:31:24.056Z,11.10
2022-10-26T20:33:52.926Z,9.05
2022-10-26T20:36:21.112Z,14.35
2022-10-26T20:38:49.314Z,12.48
2022-10-26T20:41:17.160Z,11.90
2022-10-26T20:43:44.883Z,9.80
2022-10-26T20:46:21.484Z,13.73
2022-10-26T20:48:49.319Z,11.15
2022-10-26T20:51:26.373Z,14.05
2022-10-26T20:54:28.808Z,15.32
2022-10-26T20:56:57.511Z,10.85
2022-10-26T20:59:28.401Z,12.52
2022-10-26T21:01:55.955Z,9.98
2022-10-26T21:04:23.676Z,9.52
2022-10-26T21:06:51.378Z,8.88
2022-10-26T21:09:20.258Z,8.77
2022-10-26T21:11:49.585Z,14.93
2022-10-26T21:14:16.932Z,9.20
2022-10-26T21:16:44.427Z,8.65
2022-10-26T21:19:11.912Z,7.32
2022-10-26T21:21:39.376Z,7.20
2022-10-26T21:24:07.699Z,8.77
2022-10-26T21:26:35.190Z,7.07
2022-10-26T21:29:03.394Z,9.25
2022-10-26T21:35:54.026Z,6.10
2022-10-26T21:38:21.758Z,7.32
2022-10-26T21:40:49.110Z,9.57
2022-10-26T21:43:17.436Z,9.27
2022-10-26T21:45:44.933Z,10.30
2022-10-26T21:48:12.530Z,9.10
2022-10-26T21:50:41.434Z,8.02
2022-10-26T21:53:08.915Z,9.75
2022-10-26T21:55:36.515Z,7.10
2022-10-26T21:58:04.014Z,7.45
2022-10-26T22:00:31.743Z,7.38
2022-10-26T22:02:59.204Z,7.10
2022-10-26T22:05:26.581Z,9.65
2022-10-26T22:07:54.072Z,9.70
2022-10-26T22:10:22.975Z,8.90
2022-10-26T22:12:50.575Z,7.45
2022-10-26T22:17:51.413Z,8.50
2022-10-26T22:20:18.648Z,6.28
2022-10-26T22:22:45.705Z,8.73
2022-10-26T22:25:12.794Z,11.20
2022-10-26T22:27:39.876Z,6.88
2022-10-26T22:30:07.676Z,7.78
2022-10-26T22:32:34.730Z,12.32
2022-10-26T22:35:11.164Z,12.93
2022-10-26T22:37:49.007Z,13.48
2022-10-26T22:40:16.099Z,6.55
2022-10-26T22:42:43.182Z,6.80
2022-10-26T22:45:10.344Z,11.80
2022-10-26T22:47:37.403Z,6.85
2022-10-26T22:50:04.868Z,11.98
2022-10-26T22:52:31.973Z,6.53
2022-10-26T22:54:59.024Z,8.35
2022-10-26T22:57:26.103Z,9.70
2022-10-26T22:59:53.187Z,8.38
2022-10-26T23:02:20.291Z,8.57
2022-10-26T23:07:19.346Z,8.90
2022-10-26T23:09:46.374Z,8.02
2022-10-26T23:12:13.452Z,9.27
2022-10-26T23:14:40.540Z,13.85
2022-10-26T23:17:07.690Z,8.50
2022-10-26T23:19:34.765Z,11.18
2022-10-26T23:22:01.910Z,8.63
2022-10-26T23:24:28.950Z,9.50
2022-10-26T23:26:56.068Z,10.70
2022-10-26T23:29:23.094Z,8.57
2022-10-26T23:31:50.192Z,11.18
2022-10-26T23:34:17.273Z,8.77
2022-10-26T23:36:44.379Z,13.73
2022-10-26T23:39:11.402Z,12.07
2022-10-26T23:41:38.504Z,13.70
2022-10-26T23:44:05.589Z,7.18
2022-10-26T23:46:32.669Z,8.05
2022-10-26T23:48:59.753Z,9.55
2022-10-26T23:51:26.822Z,9.30
2022-10-26T23:53:54.155Z,11.00
2022-10-26T23:56:21.216Z,11.35
2022-10-26T23:58:51.271Z,10.23
